Time;durP1;ratioP1;P1;durP2;ratioP2;P2;SDS_P1;SDS_P2;PMS_P1;PMS_P2;Temp;Humidity;BMP_temperature;BMP_pressure;BME280_temperature;BME280_humidity;BME280_pressure;Samples;Min_cycle;Max_cycle;Signal;HPM_P1;HPM_P2
2021/12/18 00:00:26;;;;;;;81.82;57.95;;;;;;;;;;5113046;27;20015;-39
2021/12/18 00:02:51;;;;;;;50.75;42.10;;;;;;;;;;5115693;27;20287;-40
2021/12/18 00:05:17;;;;;;;55.47;49.22;;;;;;;;;;5118196;27;20468;-39
2021/12/18 00:07:42;;;;;;;66.30;52.13;;;;;;;;;;5118147;27;20084;-40
2021/12/18 00:10:07;;;;;;;71.72;58.10;;;;;;;;;;5116970;27;20019;-39
2021/12/18 00:12:33;;;;;;;47.90;36.55;;;;;;;;;;5115373;27;20119;-41
2021/12/18 00:14:58;;;;;;;35.17;27.60;;;;;;;;;;5116832;27;20023;-39
2021/12/18 00:17:23;;;;;;;28.20;25.17;;;;;;;;;;5116015;27;20369;-42
2021/12/18 00:19:49;;;;;;;45.50;35.33;;;;;;;;;;5120949;27;20122;-38
2021/12/18 00:22:14;;;;;;;46.95;37.03;;;;;;;;;;5117771;27;20051;-39
2021/12/18 00:24:39;;;;;;;68.68;45.53;;;;;;;;;;5115016;27;20032;-41
2021/12/18 00:27:05;;;;;;;58.53;44.40;;;;;;;;;;5119679;27;20025;-39
2021/12/18 00:29:30;;;;;;;42.25;37.10;;;;;;;;;;5114034;27;20707;-39
2021/12/18 00:31:57;;;;;;;32.13;28.65;;;;;;;;;;5113124;27;20023;-40
2021/12/18 00:34:22;;;;;;;44.95;28.70;;;;;;;;;;5119723;27;20015;-37
2021/12/18 00:36:48;;;;;;;27.38;19.92;;;;;;;;;;5116162;27;20152;-37
2021/12/18 00:39:13;;;;;;;26.35;14.50;;;;;;;;;;5118880;27;20404;-38
2021/12/18 00:44:12;;;;;;;;;;;;;;;;;;5122542;27;20026;-38
2021/12/18 00:46:40;;;;;;;10.77;6.88;;;;;;;;;;5114847;27;19919;-38
2021/12/18 00:49:06;;;;;;;12.45;10.95;;;;;;;;;;5118370;27;20011;-38
2021/12/18 00:51:31;;;;;;;13.13;9.65;;;;;;;;;;5116257;27;20035;-38
2021/12/18 00:53:57;;;;;;;18.35;15.80;;;;;;;;;;5116808;27;20172;-39
2021/12/18 00:56:23;;;;;;;34.55;28.80;;;;;;;;;;5113807;27;20015;-39
2021/12/18 00:58:50;;;;;;;56.35;43.78;;;;;;;;;;5114643;27;20015;-39
2021/12/18 01:01:15;;;;;;;57.78;39.22;;;;;;;;;;5119467;27;20023;-40
2021/12/18 01:03:42;;;;;;;38.92;34.00;;;;;;;;;;5118609;27;20479;-38
2021/12/18 01:06:07;;;;;;;45.28;35.05;;;;;;;;;;5119956;27;20475;-39
2021/12/18 01:08:33;;;;;;;47.70;35.95;;;;;;;;;;5114861;27;20025;-38
2021/12/18 01:14:41;;;;;;;46.97;34.55;;;;;;;;;;5117984;27;20037;-38
2021/12/18 01:16:38;;;;;;;56.70;36.40;;;;;;;;;;5103741;27;20036;-38
2021/12/18 01:24:31;;;;;;;34.35;27.73;;;;;;;;;;5116944;27;20023;-40
2021/12/18 01:26:57;;;;;;;30.90;26.08;;;;;;;;;;5116023;27;20400;-38
2021/12/18 01:29:22;;;;;;;28.90;25.88;;;;;;;;;;5113778;27;20037;-38
2021/12/18 01:31:47;;;;;;;31.40;28.02;;;;;;;;;;5113412;27;20455;-38
2021/12/18 01:34:13;;;;;;;31.77;28.60;;;;;;;;;;5117393;27;20015;-39
2021/12/18 01:36:38;;;;;;;31.20;27.90;;;;;;;;;;5118358;27;20153;-39
2021/12/18 01:39:04;;;;;;;32.83;27.05;;;;;;;;;;5117937;27;20508;-38
2021/12/18 01:41:39;;;;;;;26.95;22.55;;;;;;;;;;5115072;27;20471;-38
2021/12/18 01:52:19;;;;;;;26.80;24.08;;;;;;;;;;5120393;27;20019;-38
2021/12/18 01:54:33;;;;;;;29.27;25.90;;;;;;;;;;5115737;27;20038;-38
2021/12/18 01:56:59;;;;;;;29.17;26.08;;;;;;;;;;5116756;27;20020;-40
2021/12/18 01:59:35;;;;;;;26.10;23.30;;;;;;;;;;5114011;27;20024;-39
2021/12/18 02:02:03;;;;;;;32.63;22.55;;;;;;;;;;5116888;27;20152;-38
2021/12/18 02:04:28;;;;;;;26.15;22.38;;;;;;;;;;5117249;27;20027;-39
2021/12/18 02:06:53;;;;;;;24.13;18.95;;;;;;;;;;5110866;27;20048;-38
2021/12/18 02:09:20;;;;;;;27.15;16.30;;;;;;;;;;5113067;27;20160;-39
2021/12/18 02:11:46;;;;;;;23.63;16.15;;;;;;;;;;5116499;27;20027;-41
2021/12/18 02:19:31;;;;;;;22.83;20.45;;;;;;;;;;5119678;27;20026;-38
2021/12/18 02:20:11;;;;;;;23.40;20.88;;;;;;;;;;5115319;28;20051;-41
2021/12/18 02:22:36;;;;;;;24.05;21.67;;;;;;;;;;5115327;27;20125;-38
2021/12/18 02:25:02;;;;;;;25.85;23.48;;;;;;;;;;5119909;27;20460;-38
2021/12/18 02:27:27;;;;;;;30.85;27.48;;;;;;;;;;5123318;27;20046;-38
2021/12/18 02:29:53;;;;;;;34.85;24.42;;;;;;;;;;5122836;27;20023;-39
2021/12/18 02:32:20;;;;;;;23.90;21.45;;;;;;;;;;5122773;27;20050;-39
2021/12/18 02:34:52;;;;;;;23.45;20.98;;;;;;;;;;5123406;27;20095;-39
2021/12/18 02:37:21;;;;;;;22.92;20.23;;;;;;;;;;5121947;27;20038;-38
2021/12/18 02:42:22;;;;;;;18.27;16.08;;;;;;;;;;5122231;27;20211;-40
2021/12/18 02:44:47;;;;;;;18.10;16.38;;;;;;;;;;5119297;27;20030;-38
2021/12/18 02:47:16;;;;;;;18.67;15.93;;;;;;;;;;5122772;27;20019;-38
2021/12/18 02:49:57;;;;;;;25.90;16.65;;;;;;;;;;5119393;27;20039;-39
2021/12/18 02:52:31;;;;;;;19.73;17.37;;;;;;;;;;5119614;27;20087;-38
2021/12/18 02:54:59;;;;;;;21.13;14.65;;;;;;;;;;5116266;27;20500;-39
2021/12/18 02:57:35;;;;;;;18.92;15.90;;;;;;;;;;5117558;27;20030;-38
2021/12/18 03:00:00;;;;;;;18.92;14.23;;;;;;;;;;5123161;27;20023;-38
2021/12/18 03:02:33;;;;;;;15.70;14.20;;;;;;;;;;5121841;27;20080;-40
2021/12/18 03:05:05;;;;;;;23.40;14.25;;;;;;;;;;5118104;27;20030;-40
2021/12/18 03:07:31;;;;;;;19.55;15.30;;;;;;;;;;5121951;27;20027;-38
2021/12/18 03:23:27;;;;;;;29.13;18.73;;;;;;;;;;5125035;27;20022;-39
2021/12/18 03:25:56;;;;;;;19.80;14.20;;;;;;;;;;5121424;27;20047;-37
2021/12/18 03:28:21;;;;;;;19.80;16.55;;;;;;;;;;5119033;27;20477;-38
2021/12/18 03:30:47;;;;;;;20.33;16.60;;;;;;;;;;5125955;27;20019;-38
2021/12/18 03:33:12;;;;;;;16.77;14.98;;;;;;;;;;5121574;27;20046;-41
2021/12/18 03:35:37;;;;;;;16.48;14.05;;;;;;;;;;5118726;27;20365;-39
2021/12/18 03:38:03;;;;;;;17.30;12.98;;;;;;;;;;5116316;27;20066;-38
2021/12/18 03:40:29;;;;;;;17.30;13.50;;;;;;;;;;5119780;27;20490;-40
2021/12/18 03:42:54;;;;;;;19.63;15.27;;;;;;;;;;5122383;27;20023;-39
2021/12/18 03:45:20;;;;;;;20.13;18.02;;;;;;;;;;5114906;27;20091;-39
2021/12/18 03:47:47;;;;;;;16.17;13.00;;;;;;;;;;5115909;27;20134;-39
2021/12/18 03:50:12;;;;;;;12.60;10.48;;;;;;;;;;5120122;27;20075;-39
2021/12/18 03:52:38;;;;;;;10.32;9.05;;;;;;;;;;5116105;27;20027;-40
2021/12/18 03:55:04;;;;;;;19.17;8.95;;;;;;;;;;5118473;27;20026;-39
2021/12/18 03:57:29;;;;;;;14.20;11.25;;;;;;;;;;5121629;27;20019;-39
2021/12/18 03:59:54;;;;;;;12.68;9.02;;;;;;;;;;5118026;27;20023;-38
2021/12/18 04:02:20;;;;;;;12.48;9.13;;;;;;;;;;5121684;27;20029;-38
2021/12/18 04:04:45;;;;;;;11.40;9.38;;;;;;;;;;5119255;27;20062;-38
2021/12/18 04:07:10;;;;;;;10.27;9.20;;;;;;;;;;5120279;27;20027;-40
2021/12/18 04:09:36;;;;;;;12.85;10.15;;;;;;;;;;5110434;27;20023;-40
2021/12/18 04:12:02;;;;;;;12.77;10.35;;;;;;;;;;5116038;27;20062;-40
2021/12/18 04:14:27;;;;;;;19.15;13.48;;;;;;;;;;5118480;27;20019;-40
2021/12/18 04:16:53;;;;;;;11.02;9.00;;;;;;;;;;5119379;27;20022;-41
2021/12/18 04:19:19;;;;;;;11.50;8.95;;;;;;;;;;5116423;27;20055;-38
2021/12/18 04:21:45;;;;;;;9.07;7.82;;;;;;;;;;5119505;27;20023;-40
2021/12/18 04:24:10;;;;;;;17.20;10.95;;;;;;;;;;5118448;27;20022;-38
2021/12/18 04:26:36;;;;;;;14.55;10.65;;;;;;;;;;5118578;27;20019;-40
2021/12/18 04:29:06;;;;;;;10.88;8.73;;;;;;;;;;5119060;27;20365;-37
2021/12/18 04:31:32;;;;;;;11.98;10.27;;;;;;;;;;5117811;27;20523;-40
2021/12/18 04:33:57;;;;;;;21.02;11.75;;;;;;;;;;5116304;27;20023;-38
2021/12/18 04:36:23;;;;;;;24.10;12.20;;;;;;;;;;5120874;27;20026;-40
2021/12/18 04:38:49;;;;;;;14.73;12.73;;;;;;;;;;5117547;27;20115;-41
2021/12/18 04:41:22;;;;;;;12.75;11.27;;;;;;;;;;5116081;27;20023;-37
2021/12/18 04:43:47;;;;;;;13.10;11.75;;;;;;;;;;5116723;27;20095;-37
2021/12/18 04:46:12;;;;;;;12.27;10.27;;;;;;;;;;5118384;27;20088;-38
2021/12/18 04:48:38;;;;;;;9.82;8.77;;;;;;;;;;5115752;27;20047;-38
2021/12/18 04:51:03;;;;;;;13.13;9.02;;;;;;;;;;5118664;27;20123;-38
2021/12/18 04:53:28;;;;;;;8.52;7.47;;;;;;;;;;5114355;27;20034;-38
2021/12/18 04:55:54;;;;;;;12.30;9.68;;;;;;;;;;5123497;27;20030;-38
2021/12/18 04:58:19;;;;;;;11.60;9.85;;;;;;;;;;5114651;27;20027;-39
2021/12/18 05:00:47;;;;;;;13.77;10.80;;;;;;;;;;5114651;27;20739;-39
2021/12/18 05:03:14;;;;;;;10.23;9.25;;;;;;;;;;5114649;27;20026;-39
2021/12/18 05:05:39;;;;;;;9.00;7.88;;;;;;;;;;5113449;27;20031;-38
2021/12/18 05:08:05;;;;;;;10.63;9.40;;;;;;;;;;5117635;27;20019;-39
2021/12/18 05:10:31;;;;;;;14.48;11.38;;;;;;;;;;5119010;27;20016;-38
2021/12/18 05:12:56;;;;;;;16.50;11.73;;;;;;;;;;5117788;27;20076;-38
2021/12/18 05:15:22;;;;;;;20.35;9.05;;;;;;;;;;5117738;27;20071;-38
2021/12/18 05:17:47;;;;;;;13.55;10.32;;;;;;;;;;5116939;27;20015;-38
2021/12/18 05:20:12;;;;;;;11.65;9.23;;;;;;;;;;5117041;27;20048;-39
2021/12/18 05:22:38;;;;;;;11.93;8.95;;;;;;;;;;5114547;27;20027;-38
2021/12/18 05:25:04;;;;;;;9.23;8.32;;;;;;;;;;5110771;27;20102;-43
2021/12/18 05:27:29;;;;;;;13.23;8.57;;;;;;;;;;5113358;27;20022;-38
2021/12/18 05:29:54;;;;;;;11.35;9.25;;;;;;;;;;5111699;27;20030;-38
2021/12/18 05:32:20;;;;;;;13.77;10.05;;;;;;;;;;5114983;27;20067;-38
2021/12/18 05:34:45;;;;;;;22.48;9.77;;;;;;;;;;5118167;27;20034;-38
2021/12/18 05:37:19;;;;;;;20.90;14.65;;;;;;;;;;5116074;27;20054;-38
2021/12/18 05:39:46;;;;;;;12.05;9.77;;;;;;;;;;5114122;27;20028;-38
2021/12/18 05:42:11;;;;;;;11.65;9.52;;;;;;;;;;5117102;27;20403;-38
2021/12/18 05:44:37;;;;;;;10.50;7.30;;;;;;;;;;5115683;27;20027;-40
2021/12/18 05:47:03;;;;;;;11.60;7.53;;;;;;;;;;5116675;27;20020;-38
2021/12/18 05:49:28;;;;;;;8.98;7.50;;;;;;;;;;5118262;27;20027;-38
2021/12/18 05:51:53;;;;;;;9.88;6.32;;;;;;;;;;5113162;27;20388;-38
2021/12/18 05:54:19;;;;;;;16.85;9.18;;;;;;;;;;5115332;27;20026;-38
2021/12/18 05:56:44;;;;;;;12.13;6.78;;;;;;;;;;5122888;27;20091;-37
2021/12/18 05:59:10;;;;;;;5.50;4.95;;;;;;;;;;5119869;27;20445;-38
2021/12/18 06:01:35;;;;;;;9.48;6.93;;;;;;;;;;5115004;27;20443;-38
2021/12/18 06:04:00;;;;;;;14.57;5.93;;;;;;;;;;5119759;27;20090;-41
2021/12/18 06:06:26;;;;;;;13.90;8.85;;;;;;;;;;5118087;27;20099;-39
2021/12/18 06:08:51;;;;;;;19.27;14.50;;;;;;;;;;5114000;27;20015;-38
2021/12/18 06:11:19;;;;;;;35.08;26.70;;;;;;;;;;5119153;27;20487;-39
2021/12/18 06:13:45;;;;;;;32.33;22.60;;;;;;;;;;5115211;27;20091;-37
2021/12/18 06:16:11;;;;;;;31.15;20.10;;;;;;;;;;5119001;27;20031;-39
2021/12/18 06:18:40;;;;;;;20.27;16.17;;;;;;;;;;5116850;27;20020;-38
2021/12/18 06:21:05;;;;;;;20.70;18.52;;;;;;;;;;5113867;27;20601;-39
2021/12/18 06:23:31;;;;;;;23.08;16.85;;;;;;;;;;5117824;28;20106;-42
2021/12/18 06:25:56;;;;;;;25.33;17.45;;;;;;;;;;5115612;28;20047;-38
2021/12/18 06:28:22;;;;;;;23.92;18.25;;;;;;;;;;5114260;28;20008;-38
2021/12/18 06:30:48;;;;;;;18.95;15.35;;;;;;;;;;5119576;28;20114;-37
2021/12/18 06:33:14;;;;;;;19.90;17.42;;;;;;;;;;5112266;28;20024;-39
2021/12/18 06:35:39;;;;;;;21.50;15.13;;;;;;;;;;5116572;28;20030;-38
2021/12/18 06:38:04;;;;;;;15.73;13.30;;;;;;;;;;5114172;28;20098;-38
2021/12/18 06:40:29;;;;;;;20.27;13.88;;;;;;;;;;5114370;28;20023;-37
2021/12/18 06:42:55;;;;;;;21.10;15.00;;;;;;;;;;5117272;28;20458;-37
2021/12/18 06:45:20;;;;;;;16.13;13.82;;;;;;;;;;5114361;28;20057;-37
2021/12/18 06:47:45;;;;;;;28.85;19.08;;;;;;;;;;5117517;28;20059;-38
2021/12/18 06:50:11;;;;;;;23.73;17.45;;;;;;;;;;5120405;28;20437;-38
2021/12/18 06:52:36;;;;;;;31.17;19.80;;;;;;;;;;5116003;28;20039;-38
2021/12/18 06:55:02;;;;;;;24.90;16.38;;;;;;;;;;5112480;28;20034;-38
2021/12/18 06:57:28;;;;;;;24.70;15.70;;;;;;;;;;5116293;28;20027;-38
2021/12/18 06:59:53;;;;;;;16.17;12.25;;;;;;;;;;5115669;28;20032;-38
2021/12/18 07:02:18;;;;;;;21.02;14.68;;;;;;;;;;5113375;28;20011;-37
2021/12/18 07:04:44;;;;;;;17.33;13.25;;;;;;;;;;5115641;28;20073;-37
2021/12/18 07:07:09;;;;;;;17.08;12.52;;;;;;;;;;5113814;28;20091;-37
2021/12/18 07:09:34;;;;;;;18.17;14.25;;;;;;;;;;5113485;28;20028;-39
2021/12/18 07:12:00;;;;;;;26.77;14.70;;;;;;;;;;5124587;27;20147;-38
2021/12/18 07:14:26;;;;;;;16.45;11.68;;;;;;;;;;5113381;27;20043;-39
2021/12/18 07:16:51;;;;;;;13.00;10.60;;;;;;;;;;5121838;27;20016;-37
2021/12/18 07:19:16;;;;;;;10.45;8.52;;;;;;;;;;5120505;27;20034;-38
2021/12/18 07:21:42;;;;;;;13.05;10.40;;;;;;;;;;5120274;27;20015;-38
2021/12/18 07:24:07;;;;;;;18.75;10.88;;;;;;;;;;5119352;27;20023;-37
2021/12/18 07:26:32;;;;;;;15.10;7.95;;;;;;;;;;5119221;27;20049;-39
2021/12/18 07:28:59;;;;;;;12.60;8.68;;;;;;;;;;5123251;27;20071;-38
2021/12/18 07:31:24;;;;;;;18.85;12.38;;;;;;;;;;5121014;27;20072;-38
2021/12/18 07:33:50;;;;;;;46.92;28.13;;;;;;;;;;5122820;27;20035;-38
2021/12/18 07:36:15;;;;;;;30.40;16.85;;;;;;;;;;5120292;27;20046;-38
2021/12/18 07:38:41;;;;;;;18.83;15.38;;;;;;;;;;5121647;27;20024;-37
2021/12/18 07:41:07;;;;;;;31.63;22.40;;;;;;;;;;5121791;27;20029;-38
2021/12/18 07:43:32;;;;;;;31.90;20.40;;;;;;;;;;5119257;27;20051;-39
2021/12/18 07:45:57;;;;;;;45.45;27.85;;;;;;;;;;5118793;27;20107;-38
2021/12/18 07:48:23;;;;;;;33.75;29.33;;;;;;;;;;5117842;27;20161;-43
2021/12/18 07:50:48;;;;;;;37.28;29.45;;;;;;;;;;5121019;27;20487;-39
2021/12/18 07:53:13;;;;;;;35.67;29.40;;;;;;;;;;5117829;27;20030;-40
2021/12/18 07:55:39;;;;;;;38.40;31.42;;;;;;;;;;5116420;27;20080;-39
2021/12/18 07:58:04;;;;;;;46.50;34.95;;;;;;;;;;5124329;27;20020;-38
2021/12/18 08:00:30;;;;;;;41.50;33.15;;;;;;;;;;5119975;27;20023;-37
2021/12/18 08:02:55;;;;;;;39.72;30.70;;;;;;;;;;5112306;27;20411;-37
2021/12/18 08:05:21;;;;;;;49.03;35.10;;;;;;;;;;5124264;27;20086;-38
2021/12/18 08:07:46;;;;;;;35.72;31.92;;;;;;;;;;5116045;27;20440;-37
2021/12/18 08:10:12;;;;;;;42.88;33.45;;;;;;;;;;5117379;27;20020;-38
2021/12/18 08:12:37;;;;;;;33.22;29.90;;;;;;;;;;5114806;27;20031;-38
2021/12/18 08:15:03;;;;;;;37.05;30.75;;;;;;;;;;5118519;27;20015;-37
2021/12/18 08:17:29;;;;;;;25.45;21.15;;;;;;;;;;5114770;27;20171;-40
2021/12/18 08:19:54;;;;;;;25.25;22.45;;;;;;;;;;5115429;27;20539;-37
2021/12/18 08:22:21;;;;;;;28.95;23.65;;;;;;;;;;5117977;27;20053;-37
2021/12/18 08:24:46;;;;;;;25.88;23.15;;;;;;;;;;5113282;27;20098;-37
2021/12/18 08:27:12;;;;;;;120.32;107.95;;;;;;;;;;5119642;27;20027;-39
2021/12/18 08:29:37;;;;;;;47.40;41.00;;;;;;;;;;5118107;27;20160;-39
2021/12/18 08:32:03;;;;;;;59.50;53.15;;;;;;;;;;5118498;27;20128;-38
2021/12/18 08:34:28;;;;;;;51.90;46.38;;;;;;;;;;5121612;27;20019;-41
2021/12/18 08:36:54;;;;;;;50.67;44.47;;;;;;;;;;5117038;27;20092;-39
2021/12/18 08:39:19;;;;;;;46.65;38.03;;;;;;;;;;5118275;27;20484;-38
2021/12/18 08:41:45;;;;;;;50.58;36.72;;;;;;;;;;5117018;27;20111;-38
2021/12/18 08:44:11;;;;;;;42.08;37.22;;;;;;;;;;5117338;27;20098;-39
2021/12/18 08:46:36;;;;;;;50.65;38.08;;;;;;;;;;5114325;27;20537;-42
2021/12/18 08:49:02;;;;;;;65.80;41.10;;;;;;;;;;5116055;27;20050;-39
2021/12/18 08:51:27;;;;;;;81.15;61.22;;;;;;;;;;5118416;27;20015;-39
2021/12/18 08:53:53;;;;;;;75.18;61.10;;;;;;;;;;5118568;27;20034;-39
2021/12/18 08:56:18;;;;;;;72.30;54.63;;;;;;;;;;5116926;27;20636;-41
2021/12/18 08:58:43;;;;;;;71.65;63.90;;;;;;;;;;5101479;27;20472;-42
2021/12/18 09:01:09;;;;;;;73.20;60.60;;;;;;;;;;5113106;27;20023;-39
2021/12/18 09:03:34;;;;;;;71.85;61.08;;;;;;;;;;5116698;27;20040;-42
2021/12/18 09:05:59;;;;;;;78.95;68.82;;;;;;;;;;5117757;27;20022;-39
2021/12/18 09:08:25;;;;;;;98.25;76.07;;;;;;;;;;5119376;27;20016;-45
2021/12/18 09:10:50;;;;;;;77.63;65.53;;;;;;;;;;5124029;27;20030;-43
2021/12/18 09:13:16;;;;;;;89.43;70.82;;;;;;;;;;5117103;27;20023;-40
2021/12/18 09:15:41;;;;;;;108.35;83.57;;;;;;;;;;5118422;27;20545;-39
2021/12/18 09:18:07;;;;;;;98.53;77.38;;;;;;;;;;5117972;27;20112;-40
2021/12/18 09:20:32;;;;;;;111.53;88.28;;;;;;;;;;5116497;27;20492;-40
2021/12/18 09:23:00;;;;;;;101.20;85.50;;;;;;;;;;5119161;27;20099;-39
2021/12/18 09:25:25;;;;;;;65.80;57.90;;;;;;;;;;5119562;27;20480;-39
2021/12/18 09:27:50;;;;;;;94.95;75.43;;;;;;;;;;5121306;27;20017;-40
2021/12/18 09:30:16;;;;;;;97.28;84.88;;;;;;;;;;5120359;27;20477;-40
2021/12/18 09:32:42;;;;;;;92.93;82.72;;;;;;;;;;5115752;27;20537;-40
2021/12/18 09:35:08;;;;;;;94.88;81.88;;;;;;;;;;5118184;27;20023;-40
2021/12/18 09:37:33;;;;;;;86.60;76.45;;;;;;;;;;5117207;27;20024;-42
2021/12/18 09:39:59;;;;;;;85.20;75.22;;;;;;;;;;5116515;27;20030;-42
2021/12/18 09:42:24;;;;;;;88.93;70.93;;;;;;;;;;5117134;27;20022;-40
2021/12/18 09:44:50;;;;;;;84.32;75.10;;;;;;;;;;5114378;27;20067;-41
2021/12/18 09:47:16;;;;;;;76.68;68.57;;;;;;;;;;5111400;27;20028;-41
2021/12/18 09:49:41;;;;;;;82.10;68.70;;;;;;;;;;5118710;27;20085;-40
2021/12/18 09:52:07;;;;;;;75.30;67.22;;;;;;;;;;5114851;27;20735;-41
2021/12/18 09:54:32;;;;;;;81.75;66.07;;;;;;;;;;5113960;27;20111;-40
2021/12/18 09:56:57;;;;;;;74.15;66.35;;;;;;;;;;5110931;27;20475;-41
2021/12/18 09:59:23;;;;;;;71.25;63.58;;;;;;;;;;5111309;27;20456;-44
2021/12/18 10:01:48;;;;;;;70.95;62.28;;;;;;;;;;5116519;27;20026;-43
2021/12/18 10:04:33;;;;;;;76.50;61.40;;;;;;;;;;5113872;27;20092;-39
2021/12/18 10:07:00;;;;;;;66.15;59.53;;;;;;;;;;5112480;27;20580;-42
2021/12/18 10:09:25;;;;;;;58.28;52.20;;;;;;;;;;5113108;27;20027;-42
2021/12/18 10:11:52;;;;;;;51.95;45.30;;;;;;;;;;5117411;27;20086;-43
2021/12/18 10:14:19;;;;;;;50.50;44.10;;;;;;;;;;5114166;27;20027;-39
2021/12/18 10:16:49;;;;;;;36.17;29.25;;;;;;;;;;5108679;28;20099;-44
2021/12/18 10:19:24;;;;;;;36.25;25.90;;;;;;;;;;5113134;27;20024;-47
2021/12/18 10:21:59;;;;;;;29.98;24.02;;;;;;;;;;5112316;27;20110;-45
2021/12/18 10:24:25;;;;;;;40.28;26.35;;;;;;;;;;5116468;28;20019;-45
2021/12/18 10:26:51;;;;;;;22.25;17.80;;;;;;;;;;5110964;28;20277;-41
2021/12/18 10:29:28;;;;;;;12.60;9.18;;;;;;;;;;5107848;28;20778;-40
2021/12/18 10:31:53;;;;;;;16.73;14.13;;;;;;;;;;5108814;28;20015;-40
2021/12/18 10:34:23;;;;;;;13.75;12.43;;;;;;;;;;5113730;28;20580;-43
2021/12/18 10:37:07;;;;;;;8.25;6.35;;;;;;;;;;5108326;28;20077;-43
2021/12/18 10:39:33;;;;;;;11.68;5.28;;;;;;;;;;5110853;28;22092;-41
2021/12/18 10:42:13;;;;;;;8.23;4.28;;;;;;;;;;5105623;28;20118;-44
2021/12/18 10:44:53;;;;;;;23.95;13.82;;;;;;;;;;5116808;27;20051;-42
2021/12/18 10:47:19;;;;;;;12.40;6.47;;;;;;;;;;5109420;27;20177;-44
2021/12/18 10:49:44;;;;;;;20.52;13.68;;;;;;;;;;5117419;27;20107;-43
2021/12/18 10:52:09;;;;;;;22.92;16.02;;;;;;;;;;5117557;27;20042;-41
2021/12/18 10:54:35;;;;;;;19.13;17.35;;;;;;;;;;5115990;27;20026;-44
2021/12/18 10:57:00;;;;;;;32.83;25.38;;;;;;;;;;5117602;27;20019;-43
2021/12/18 10:59:34;;;;;;;14.15;9.35;;;;;;;;;;5118198;27;20065;-43
2021/12/18 11:02:05;;;;;;;19.02;14.52;;;;;;;;;;5113965;27;20024;-44
2021/12/18 11:04:34;;;;;;;15.60;11.63;;;;;;;;;;5114147;27;20022;-45
2021/12/18 11:07:14;;;;;;;9.77;7.53;;;;;;;;;;5113175;27;20019;-44
2021/12/18 11:09:45;;;;;;;20.02;13.63;;;;;;;;;;5113020;27;20270;-43
2021/12/18 11:14:54;;;;;;;18.80;12.85;;;;;;;;;;5116047;27;20078;-43
2021/12/18 11:17:20;;;;;;;18.27;14.75;;;;;;;;;;5113176;27;20047;-43
2021/12/18 11:19:45;;;;;;;22.10;14.13;;;;;;;;;;5114382;27;20451;-43
2021/12/18 11:22:15;;;;;;;18.83;9.60;;;;;;;;;;5116153;27;20027;-44
2021/12/18 11:25:01;;;;;;;6.93;6.05;;;;;;;;;;5119099;27;20057;-46
2021/12/18 11:27:28;;;;;;;9.38;5.47;;;;;;;;;;5117544;27;20114;-41
2021/12/18 11:29:57;;;;;;;4.53;3.22;;;;;;;;;;5115420;27;20054;-41
2021/12/18 11:32:27;;;;;;;8.73;6.47;;;;;;;;;;5117529;27;20028;-42
2021/12/18 11:34:54;;;;;;;10.23;4.13;;;;;;;;;;5117216;27;20042;-46
2021/12/18 11:37:20;;;;;;;7.57;4.70;;;;;;;;;;5113645;27;20409;-43
2021/12/18 11:39:46;;;;;;;9.90;4.82;;;;;;;;;;5115479;27;20042;-44
2021/12/18 11:42:12;;;;;;;7.88;6.97;;;;;;;;;;5118512;27;20023;-44
2021/12/18 11:44:40;;;;;;;5.32;4.53;;;;;;;;;;5115056;27;20019;-41
2021/12/18 11:47:24;;;;;;;6.25;5.65;;;;;;;;;;5115398;27;20027;-40
2021/12/18 11:49:49;;;;;;;13.88;6.53;;;;;;;;;;5116294;27;20062;-44
2021/12/18 11:52:15;;;;;;;6.72;5.47;;;;;;;;;;5114929;27;20042;-44
2021/12/18 11:54:40;;;;;;;4.28;2.95;;;;;;;;;;5111708;27;20034;-46
2021/12/18 11:57:05;;;;;;;4.75;3.53;;;;;;;;;;5112426;27;20027;-44
2021/12/18 11:59:38;;;;;;;17.80;12.25;;;;;;;;;;5115142;27;20434;-45
2021/12/18 12:02:03;;;;;;;5.32;3.70;;;;;;;;;;5119731;27;20039;-41
2021/12/18 12:04:48;;;;;;;4.07;2.97;;;;;;;;;;5114035;27;20020;-46
2021/12/18 12:07:19;;;;;;;3.60;2.55;;;;;;;;;;5114774;27;20039;-42
2021/12/18 12:10:05;;;;;;;4.60;3.00;;;;;;;;;;5113217;27;20111;-45
2021/12/18 12:12:51;;;;;;;5.03;2.90;;;;;;;;;;5110791;27;20027;-46
2021/12/18 12:15:16;;;;;;;3.95;2.33;;;;;;;;;;5110178;27;20032;-42
2021/12/18 12:17:54;;;;;;;2.65;1.98;;;;;;;;;;5112834;27;20023;-42
2021/12/18 12:20:35;;;;;;;7.53;3.42;;;;;;;;;;5117007;27;20055;-44
2021/12/18 12:23:02;;;;;;;15.35;6.75;;;;;;;;;;5114939;27;20106;-43
2021/12/18 12:25:33;;;;;;;24.88;13.48;;;;;;;;;;5115109;27;20088;-44
2021/12/18 12:27:58;;;;;;;;;;;;;;;;;;5113605;27;20051;-44
2021/12/18 12:30:37;;;;;;;12.00;10.77;;;;;;;;;;5116088;27;19942;-43
2021/12/18 12:33:04;;;;;;;31.48;26.45;;;;;;;;;;5113395;27;20130;-42
2021/12/18 12:35:29;;;;;;;22.50;15.82;;;;;;;;;;5117387;27;20022;-41
2021/12/18 12:37:59;;;;;;;29.25;20.40;;;;;;;;;;5114207;27;20068;-44
2021/12/18 12:40:31;;;;;;;26.17;21.77;;;;;;;;;;5116418;27;20544;-44
2021/12/18 12:43:16;;;;;;;15.80;12.88;;;;;;;;;;5117187;27;20588;-46
2021/12/18 12:45:43;;;;;;;6.88;4.88;;;;;;;;;;5110869;27;20023;-47
2021/12/18 12:48:09;;;;;;;6.13;4.20;;;;;;;;;;5112977;27;20043;-45
2021/12/18 12:50:34;;;;;;;21.63;13.68;;;;;;;;;;5113772;27;20745;-41
2021/12/18 12:53:04;;;;;;;8.60;6.07;;;;;;;;;;5110627;27;20027;-41
2021/12/18 12:55:41;;;;;;;6.78;6.07;;;;;;;;;;5110900;27;20038;-40
2021/12/18 12:58:34;;;;;;;6.47;3.53;;;;;;;;;;5109163;27;20110;-41
2021/12/18 13:01:05;;;;;;;9.70;5.82;;;;;;;;;;5108114;27;20070;-45
2021/12/18 13:03:33;;;;;;;8.40;7.03;;;;;;;;;;5116174;27;20031;-41
2021/12/18 13:06:06;;;;;;;12.45;6.55;;;;;;;;;;5111080;27;20019;-41
2021/12/18 13:08:33;;;;;;;24.73;12.27;;;;;;;;;;5115289;27;20079;-41
2021/12/18 13:11:00;;;;;;;6.05;4.80;;;;;;;;;;5113772;27;20031;-41
2021/12/18 13:13:30;;;;;;;10.02;7.88;;;;;;;;;;5108056;27;20307;-45
2021/12/18 13:15:56;;;;;;;12.00;8.48;;;;;;;;;;5116320;27;20115;-40
2021/12/18 13:18:23;;;;;;;8.68;7.30;;;;;;;;;;5110461;27;20550;-41
2021/12/18 13:20:55;;;;;;;15.40;13.80;;;;;;;;;;5109963;27;20047;-42
2021/12/18 13:23:21;;;;;;;10.30;5.40;;;;;;;;;;5109583;27;20053;-41
2021/12/18 13:25:50;;;;;;;7.10;4.30;;;;;;;;;;5113393;27;20071;-44
2021/12/18 13:28:16;;;;;;;7.53;6.00;;;;;;;;;;5114863;27;20635;-41
2021/12/18 13:30:41;;;;;;;13.18;7.68;;;;;;;;;;5111595;27;20048;-41
2021/12/18 13:33:07;;;;;;;9.93;6.97;;;;;;;;;;5111548;27;20027;-41
2021/12/18 13:35:34;;;;;;;11.27;6.93;;;;;;;;;;5108437;27;20090;-44
2021/12/18 13:38:04;;;;;;;9.85;7.68;;;;;;;;;;5111759;27;20039;-43
2021/12/18 13:40:30;;;;;;;9.60;6.00;;;;;;;;;;5112710;27;20022;-42
2021/12/18 13:43:09;;;;;;;8.85;8.02;;;;;;;;;;5114015;27;20061;-42
2021/12/18 13:45:53;;;;;;;18.80;11.77;;;;;;;;;;5112567;27;20019;-41
2021/12/18 13:48:20;;;;;;;8.45;7.28;;;;;;;;;;5107497;27;20047;-41
2021/12/18 13:50:53;;;;;;;17.05;12.05;;;;;;;;;;5111535;27;20042;-41
2021/12/18 13:53:18;;;;;;;21.13;10.88;;;;;;;;;;5112018;27;20552;-40
2021/12/18 13:55:47;;;;;;;12.55;9.30;;;;;;;;;;5115157;27;20491;-44
2021/12/18 13:58:12;;;;;;;14.70;11.20;;;;;;;;;;5112582;27;20132;-43
2021/12/18 14:01:04;;;;;;;17.27;10.75;;;;;;;;;;5114034;27;20273;-45
2021/12/18 14:03:48;;;;;;;8.27;6.45;;;;;;;;;;5104893;27;20041;-46
2021/12/18 14:06:16;;;;;;;12.82;8.98;;;;;;;;;;5110245;27;20037;-45
2021/12/18 14:08:42;;;;;;;15.02;10.70;;;;;;;;;;5114938;27;20626;-42
2021/12/18 14:11:09;;;;;;;12.68;10.30;;;;;;;;;;5110480;27;20023;-43
2021/12/18 14:13:45;;;;;;;16.08;14.38;;;;;;;;;;5115286;27;20023;-40
2021/12/18 14:16:11;;;;;;;6.22;4.90;;;;;;;;;;5110720;28;20064;-44
2021/12/18 14:18:37;;;;;;;14.63;13.00;;;;;;;;;;5112768;27;20023;-43
2021/12/18 14:21:03;;;;;;;7.60;6.25;;;;;;;;;;5104070;27;20130;-40
2021/12/18 14:23:37;;;;;;;7.32;5.40;;;;;;;;;;5113441;27;20204;-43
2021/12/18 14:26:20;;;;;;;12.00;7.35;;;;;;;;;;5113463;28;20651;-41
2021/12/18 14:28:46;;;;;;;9.00;7.00;;;;;;;;;;5115899;28;20019;-41
2021/12/18 14:31:23;;;;;;;6.20;4.65;;;;;;;;;;5109277;28;20034;-41
2021/12/18 14:33:59;;;;;;;7.13;6.05;;;;;;;;;;5108837;28;20040;-41
2021/12/18 14:36:37;;;;;;;5.32;4.68;;;;;;;;;;5109282;28;20672;-43
2021/12/18 14:39:02;;;;;;;9.98;6.00;;;;;;;;;;5110586;28;20027;-40
2021/12/18 14:41:29;;;;;;;6.72;5.25;;;;;;;;;;5109852;27;20020;-44
2021/12/18 14:44:00;;;;;;;5.22;4.72;;;;;;;;;;5102561;28;20776;-40
2021/12/18 14:46:25;;;;;;;7.78;6.60;;;;;;;;;;5108100;28;20575;-44
2021/12/18 14:48:51;;;;;;;25.60;10.68;;;;;;;;;;5111612;27;20072;-41
2021/12/18 14:51:25;;;;;;;30.75;21.15;;;;;;;;;;5105903;28;20027;-45
2021/12/18 14:53:57;;;;;;;11.27;9.43;;;;;;;;;;5111806;28;20035;-42
2021/12/18 14:56:23;;;;;;;9.52;7.47;;;;;;;;;;5107279;28;20024;-42
2021/12/18 14:58:50;;;;;;;12.88;8.77;;;;;;;;;;5106958;27;20032;-42
2021/12/18 15:01:16;;;;;;;35.10;23.63;;;;;;;;;;5111729;28;20027;-45
2021/12/18 15:03:45;;;;;;;29.52;21.58;;;;;;;;;;5107315;28;20570;-41
2021/12/18 15:06:15;;;;;;;26.23;22.75;;;;;;;;;;5109912;28;20069;-40